Time;durP1;ratioP1;P1;durP2;ratioP2;P2;SDS_P1;SDS_P2;PMS_P1;PMS_P2;Temp;Humidity;BMP_temperature;BMP_pressure;BME280_temperature;BME280_humidity;BME280_pressure;Samples;Min_cycle;Max_cycle;Signal;HPM_P1;HPM_P2
2021/04/23 00:02:23;;;;;;;0.30;0.20;;;11.50;89.20;;;;;;4993700;28;20034;-86
2021/04/23 00:04:49;;;;;;;0.10;0.10;;;11.90;88.00;;;;;;5004337;28;20375;-85
2021/04/23 00:07:15;;;;;;;0.10;0.10;;;11.90;88.70;;;;;;4998648;28;20057;-85
2021/04/23 00:09:40;;;;;;;0.00;0.00;;;11.70;89.20;;;;;;4999570;28;20109;-85
2021/04/23 00:12:10;;;;;;;0.10;0.10;;;11.50;90.00;;;;;;5006398;28;20022;-85
2021/04/23 00:14:43;;;;;;;0.00;0.00;;;11.40;90.30;;;;;;5018681;28;20038;-85
2021/04/23 00:17:09;;;;;;;0.30;0.30;;;11.40;90.70;;;;;;4998664;28;20128;-85
2021/04/23 00:19:36;;;;;;;0.00;0.00;;;11.30;91.10;;;;;;4997071;28;20033;-85
2021/04/23 00:22:03;;;;;;;2.10;0.75;;;11.30;91.60;;;;;;5010206;28;20502;-86
2021/04/23 00:24:29;;;;;;;0.10;0.10;;;11.30;98.10;;;;;;5005025;28;20048;-86
2021/04/23 00:26:55;;;;;;;0.00;0.00;;;11.30;92.30;;;;;;4992403;28;20026;-85
2021/04/23 00:29:21;;;;;;;0.55;0.55;;;11.20;92.50;;;;;;5003461;28;20038;-85
2021/04/23 00:34:33;;;;;;;0.00;0.00;;;10.80;93.40;;;;;;4992551;28;20077;-85
2021/04/23 00:36:59;;;;;;;0.00;0.00;;;10.70;93.60;;;;;;4995622;28;20058;-85
2021/04/23 00:39:25;;;;;;;0.30;0.30;;;10.80;93.40;;;;;;5006476;28;20731;-85
2021/04/23 00:41:51;;;;;;;0.00;0.00;;;10.70;93.60;;;;;;5017090;28;20042;-85
2021/04/23 00:44:17;;;;;;;0.33;0.20;;;10.50;94.30;;;;;;5002405;28;20029;-85
2021/04/23 00:46:43;;;;;;;0.00;0.00;;;10.50;94.30;;;;;;4998241;28;20034;-85
2021/04/23 00:49:09;;;;;;;1.05;1.05;;;10.70;94.60;;;;;;4999077;28;20105;-86
2021/04/23 00:51:40;;;;;;;0.00;0.00;;;10.50;95.00;;;;;;4996474;28;20117;-85
2021/04/23 00:54:08;;;;;;;0.28;0.22;;;10.50;94.80;;;;;;4996946;28;20030;-86
2021/04/23 00:56:37;;;;;;;0.35;0.35;;;10.50;95.20;;;;;;4990749;28;20742;-85
2021/04/23 00:59:05;;;;;;;0.20;0.20;;;10.30;96.50;;;;;;5001453;28;20025;-86
2021/04/23 01:01:35;;;;;;;0.10;0.10;;;10.40;95.90;;;;;;4999145;28;20027;-86
2021/04/23 01:04:04;;;;;;;0.03;0.03;;;10.50;96.90;;;;;;4996395;28;20017;-86
2021/04/23 01:06:33;;;;;;;0.00;0.00;;;10.30;96.90;;;;;;4995579;28;20084;-86
2021/04/23 01:09:05;;;;;;;0.28;0.28;;;10.30;97.10;;;;;;5002466;28;20014;-85
2021/04/23 01:11:31;;;;;;;0.20;0.20;;;10.30;97.20;;;;;;4998933;28;20033;-85
2021/04/23 01:13:57;;;;;;;0.00;0.00;;;10.20;97.70;;;;;;5003712;28;20025;-85
2021/04/23 01:16:24;;;;;;;0.13;0.13;;;10.20;97.90;;;;;;5012700;28;20084;-85
2021/04/23 01:18:52;;;;;;;0.05;0.05;;;10.00;98.10;;;;;;5006491;28;20030;-85
2021/04/23 01:21:23;;;;;;;0.65;0.65;;;10.10;98.30;;;;;;4995604;28;20193;-86
2021/04/23 01:23:52;;;;;;;0.28;0.28;;;9.90;98.90;;;;;;4998221;28;20563;-86
2021/04/23 01:26:20;;;;;;;0.10;0.10;;;10.00;99.00;;;;;;4999850;28;20117;-86
2021/04/23 01:28:49;;;;;;;0.08;0.08;;;9.90;99.30;;;;;;4994976;28;20698;-86
2021/04/23 01:31:17;;;;;;;0.50;0.50;;;9.80;99.60;;;;;;5003150;28;20106;-88
2021/04/23 01:33:48;;;;;;;0.00;0.00;;;9.70;99.90;;;;;;5006609;28;20101;-87
2021/04/23 01:36:14;;;;;;;0.05;0.05;;;9.70;99.90;;;;;;5007912;28;20120;-86
2021/04/23 01:38:42;;;;;;;0.00;0.00;;;9.90;99.90;;;;;;4991563;28;20375;-86
2021/04/23 01:41:09;;;;;;;0.22;0.22;;;10.00;99.70;;;;;;5002332;28;20498;-89
2021/04/23 01:43:36;;;;;;;0.50;0.50;;;9.90;99.80;;;;;;4993844;28;20101;-88
2021/04/23 01:46:04;;;;;;;0.10;0.10;;;10.00;99.90;;;;;;5001557;28;20338;-88
2021/04/23 01:48:31;;;;;;;0.40;0.20;;;9.80;99.90;;;;;;5022209;28;20025;-88
2021/04/23 01:50:57;;;;;;;0.22;0.20;;;9.70;99.90;;;;;;5004715;28;20112;-87
2021/04/23 01:53:23;;;;;;;0.47;0.47;;;9.70;99.90;;;;;;5008452;28;20531;-86
2021/04/23 01:55:49;;;;;;;0.10;0.10;;;9.70;99.90;;;;;;5008438;28;20044;-86
2021/04/23 01:58:14;;;;;;;0.20;0.20;;;9.50;99.90;;;;;;5019573;28;20033;-86
2021/04/23 02:00:47;;;;;;;0.00;0.00;;;9.70;99.90;;;;;;5001307;28;20034;-86
2021/04/23 02:03:15;;;;;;;0.30;0.15;;;9.60;99.90;;;;;;5004699;28;20049;-87
2021/04/23 02:05:43;;;;;;;0.10;0.10;;;9.40;99.90;;;;;;5005158;28;20905;-87
2021/04/23 02:08:11;;;;;;;0.00;0.00;;;9.40;99.90;;;;;;4993390;28;20033;-87
2021/04/23 02:10:41;;;;;;;0.15;0.15;;;9.30;99.90;;;;;;4994617;28;20380;-87
2021/04/23 02:13:07;;;;;;;0.10;0.10;;;9.20;99.90;;;;;;4997153;28;20034;-87
2021/04/23 02:15:35;;;;;;;0.55;0.22;;;9.00;99.90;;;;;;4991574;28;20045;-86
2021/04/23 02:18:03;;;;;;;0.10;0.10;;;9.10;99.90;;;;;;5001799;28;20038;-86
2021/04/23 02:20:32;;;;;;;0.22;0.22;;;9.00;99.90;;;;;;4999529;28;20037;-86
2021/04/23 02:22:59;;;;;;;0.10;0.10;;;9.00;99.90;;;;;;5023474;28;20050;-86
2021/04/23 02:25:27;;;;;;;6.10;1.95;;;8.90;99.90;;;;;;5002428;28;20073;-86
2021/04/23 02:27:53;;;;;;;0.82;0.82;;;9.20;99.90;;;;;;5004168;28;20026;-86
2021/04/23 02:30:31;;;;;;;0.00;0.00;;;9.20;99.90;;;;;;5007305;28;20398;-86
2021/04/23 02:32:58;;;;;;;0.38;0.38;;;9.00;99.90;;;;;;5003194;28;20057;-85
2021/04/23 02:35:24;;;;;;;0.00;0.00;;;8.90;99.90;;;;;;5002339;28;20411;-86
2021/04/23 02:37:51;;;;;;;1.55;0.68;;;8.90;99.90;;;;;;4993068;28;20030;-86
2021/04/23 02:40:21;;;;;;;0.35;0.35;;;9.00;99.90;;;;;;4998908;28;20080;-86
2021/04/23 02:42:50;;;;;;;0.43;0.43;;;8.70;99.90;;;;;;5004599;28;20029;-86
2021/04/23 02:45:20;;;;;;;0.05;0.05;;;8.50;99.90;;;;;;5002256;28;20029;-86
2021/04/23 02:47:46;;;;;;;0.10;0.10;;;8.70;99.90;;;;;;5012436;28;20463;-86
2021/04/23 02:50:14;;;;;;;0.20;0.20;;;8.80;99.90;;;;;;4998387;28;20015;-85
2021/04/23 02:52:40;;;;;;;0.20;0.20;;;8.70;99.90;;;;;;4989377;28;20089;-87
2021/04/23 02:55:07;;;;;;;0.03;0.03;;;8.70;99.90;;;;;;5005276;28;20049;-88
2021/04/23 02:57:33;;;;;;;0.45;0.45;;;8.80;99.90;;;;;;5002693;28;20661;-86
2021/04/23 02:59:59;;;;;;;0.35;0.35;;;8.70;99.90;;;;;;5002498;28;20048;-86
2021/04/23 03:02:25;;;;;;;0.00;0.00;;;8.70;99.90;;;;;;4999315;28;20042;-88
2021/04/23 03:04:51;;;;;;;0.38;0.28;;;8.80;99.90;;;;;;4997356;28;20041;-86
2021/04/23 03:07:20;;;;;;;0.90;0.20;;;8.90;99.90;;;;;;5007147;28;20052;-87
2021/04/23 03:09:47;;;;;;;0.10;0.10;;;8.90;99.90;;;;;;5003596;28;20038;-87
2021/04/23 03:12:14;;;;;;;0.00;0.00;;;8.80;99.90;;;;;;5010708;28;20034;-88
2021/04/23 03:14:39;;;;;;;0.10;0.10;;;8.70;99.90;;;;;;5006179;28;20495;-87
2021/04/23 03:17:05;;;;;;;0.13;0.13;;;8.60;99.90;;;;;;5011398;28;20069;-88
2021/04/23 03:19:31;;;;;;;0.08;0.08;;;8.60;99.90;;;;;;5010056;28;20065;-88
2021/04/23 03:21:57;;;;;;;0.05;0.03;;;8.60;99.90;;;;;;5006108;28;20037;-88
2021/04/23 03:24:22;;;;;;;0.10;0.10;;;8.30;99.90;;;;;;4993045;28;20054;-88
2021/04/23 03:26:48;;;;;;;0.17;0.17;;;8.40;99.90;;;;;;4992180;28;20026;-88
2021/04/23 03:29:16;;;;;;;19.75;0.85;;;8.40;99.90;;;;;;5001413;28;20085;-88
2021/04/23 03:31:42;;;;;;;0.00;0.00;;;8.40;99.90;;;;;;5015626;28;20113;-88
2021/04/23 03:34:10;;;;;;;0.10;0.10;;;8.30;99.90;;;;;;5020586;28;20029;-87
2021/04/23 03:36:35;;;;;;;;;;;8.10;99.90;;;;;;5009455;28;20108;-88
2021/04/23 03:39:03;;;;;;;0.03;0.03;;;8.20;99.90;;;;;;5024614;28;20391;-87
2021/04/23 03:41:33;;;;;;;0.20;0.20;;;8.20;99.90;;;;;;4992413;28;20073;-88
2021/04/23 03:44:00;;;;;;;0.20;0.20;;;8.30;99.90;;;;;;5001161;28;20113;-89
2021/04/23 03:46:27;;;;;;;0.20;0.20;;;8.30;99.90;;;;;;4998956;28;20030;-88
2021/04/23 03:48:54;;;;;;;0.20;0.20;;;8.00;99.90;;;;;;5008237;28;20104;-88
2021/04/23 03:51:20;;;;;;;0.10;0.10;;;7.80;99.90;;;;;;4998639;28;20029;-87
2021/04/23 03:53:48;;;;;;;0.25;0.25;;;7.90;99.90;;;;;;5006745;28;20057;-88
2021/04/23 03:56:15;;;;;;;0.90;0.38;;;7.90;99.90;;;;;;4992019;28;20398;-88
2021/04/23 03:58:42;;;;;;;0.10;0.10;;;8.00;99.90;;;;;;5000987;28;20030;-87
2021/04/23 04:01:16;;;;;;;5.63;1.27;;;7.80;99.90;;;;;;4994066;28;20677;-87
2021/04/23 04:03:42;;;;;;;0.28;0.28;;;8.00;99.90;;;;;;4998021;28;20112;-88
2021/04/23 04:06:08;;;;;;;0.17;0.17;;;8.00;99.90;;;;;;5000082;28;20430;-89
2021/04/23 04:08:34;;;;;;;0.10;0.10;;;7.90;99.90;;;;;;4994292;28;20036;-88
2021/04/23 04:11:02;;;;;;;0.10;0.10;;;7.90;99.90;;;;;;5015291;28;20022;-88
2021/04/23 04:13:28;;;;;;;0.10;0.10;;;7.80;99.90;;;;;;5007215;28;20045;-88
2021/04/23 04:15:54;;;;;;;0.10;0.10;;;7.80;99.90;;;;;;5000473;28;20038;-87
2021/04/23 04:18:20;;;;;;;0.10;0.10;;;7.70;99.90;;;;;;5011139;28;20034;-89
2021/04/23 04:20:48;;;;;;;0.10;0.10;;;7.60;99.90;;;;;;5008176;28;20116;-88
2021/04/23 04:23:16;;;;;;;0.10;0.10;;;7.40;99.90;;;;;;5001475;28;20050;-86
2021/04/23 04:25:45;;;;;;;0.98;0.60;;;7.30;99.90;;;;;;5014825;28;20034;-86
2021/04/23 04:28:11;;;;;;;0.55;0.55;;;7.20;99.90;;;;;;4999712;28;20028;-87
2021/04/23 04:30:39;;;;;;;0.10;0.10;;;7.30;99.90;;;;;;5002945;28;20056;-86
2021/04/23 04:33:07;;;;;;;0.28;0.28;;;7.30;99.90;;;;;;5006310;28;20045;-86
2021/04/23 04:35:33;;;;;;;0.20;0.20;;;7.10;99.90;;;;;;4999780;28;20487;-87
2021/04/23 04:37:59;;;;;;;0.20;0.20;;;7.10;99.90;;;;;;5001001;28;20495;-88
2021/04/23 04:40:26;;;;;;;0.30;0.23;;;7.10;99.90;;;;;;4999747;28;20502;-88
2021/04/23 04:42:52;;;;;;;;;;;7.10;99.90;;;;;;4998876;28;20093;-88
2021/04/23 04:45:21;;;;;;;0.10;0.10;;;7.30;99.90;;;;;;4993555;28;20381;-88
2021/04/23 04:47:47;;;;;;;1.65;1.02;;;7.30;99.90;;;;;;4992526;28;20129;-88
2021/04/23 04:50:17;;;;;;;0.00;0.00;;;7.10;99.90;;;;;;4997254;28;20026;-88
2021/04/23 04:52:43;;;;;;;0.73;0.73;;;7.10;99.90;;;;;;5000979;28;20042;-88
2021/04/23 04:55:11;;;;;;;0.30;0.30;;;7.40;99.90;;;;;;5021510;28;20036;-87
2021/04/23 04:57:37;;;;;;;0.15;0.15;;;7.30;99.90;;;;;;5002126;28;20072;-88
2021/04/23 05:00:06;;;;;;;0.25;0.20;;;7.70;99.90;;;;;;5001216;28;20022;-86
2021/04/23 05:02:33;;;;;;;0.43;0.43;;;7.50;99.90;;;;;;4992764;28;20105;-88
2021/04/23 05:04:59;;;;;;;0.98;0.65;;;7.50;99.90;;;;;;5004318;28;20062;-87
2021/04/23 05:07:25;;;;;;;0.32;0.25;;;8.00;99.90;;;;;;4998519;28;20490;-88
2021/04/23 05:09:51;;;;;;;0.17;0.10;;;8.10;99.90;;;;;;5001222;28;20022;-88
2021/04/23 05:12:16;;;;;;;0.05;0.05;;;8.80;99.90;;;;;;5008262;28;20092;-88
2021/04/23 05:14:42;;;;;;;0.08;0.08;;;9.00;99.90;;;;;;5012139;28;20056;-89
2021/04/23 05:17:08;;;;;;;0.30;0.30;;;9.40;99.90;;;;;;5000051;28;20117;-88
2021/04/23 05:19:34;;;;;;;0.10;0.10;;;9.30;99.90;;;;;;5000953;28;20046;-88
2021/04/23 05:21:59;;;;;;;0.10;0.10;;;9.30;99.90;;;;;;5008685;28;20025;-88
2021/04/23 05:24:25;;;;;;;0.40;0.40;;;9.50;99.90;;;;;;5003787;28;20056;-89
2021/04/23 05:26:51;;;;;;;0.30;0.30;;;9.70;99.90;;;;;;4994791;28;20084;-89
2021/04/23 05:29:17;;;;;;;0.75;0.75;;;9.90;99.90;;;;;;4991472;28;20049;-87
2021/04/23 05:31:43;;;;;;;0.20;0.20;;;10.00;99.90;;;;;;5009409;28;20102;-86
2021/04/23 05:34:09;;;;;;;0.08;0.08;;;10.30;99.90;;;;;;5002965;28;20517;-86
2021/04/23 05:36:35;;;;;;;0.43;0.40;;;10.30;99.90;;;;;;5000729;28;20018;-86
2021/04/23 05:39:00;;;;;;;0.20;0.20;;;10.60;99.90;;;;;;4988835;28;20030;-85
2021/04/23 05:41:26;;;;;;;0.35;0.35;;;10.70;99.90;;;;;;4997581;28;20033;-87
2021/04/23 05:43:52;;;;;;;0.08;0.08;;;10.80;99.90;;;;;;5009256;28;20042;-84
2021/04/23 05:46:18;;;;;;;1.17;0.60;;;11.00;99.90;;;;;;4990365;28;20117;-86
2021/04/23 05:48:48;;;;;;;0.35;0.30;;;10.90;99.90;;;;;;5006726;28;20496;-85
2021/04/23 05:51:15;;;;;;;0.10;0.10;;;11.00;99.90;;;;;;5008733;28;20022;-85
2021/04/23 05:53:43;;;;;;;0.10;0.10;;;11.10;99.90;;;;;;5006376;28;20064;-85
2021/04/23 05:56:09;;;;;;;2.17;0.50;;;11.10;99.90;;;;;;5009390;28;20025;-86
2021/04/23 05:58:35;;;;;;;0.43;0.43;;;11.30;99.90;;;;;;5007453;28;20494;-85
2021/04/23 06:01:01;;;;;;;0.10;0.10;;;11.60;99.90;;;;;;5009315;28;20072;-85
2021/04/23 06:03:27;;;;;;;0.30;0.30;;;11.90;99.90;;;;;;5007618;28;20057;-85
2021/04/23 06:05:53;;;;;;;0.22;0.22;;;12.00;99.90;;;;;;5006903;28;20053;-86
2021/04/23 06:08:18;;;;;;;0.35;0.35;;;12.00;99.90;;;;;;5009016;28;20034;-86
2021/04/23 06:10:48;;;;;;;0.37;0.37;;;12.10;99.90;;;;;;5008480;28;20026;-86
2021/04/23 06:13:15;;;;;;;0.65;0.20;;;12.10;99.90;;;;;;5008704;28;20049;-85
2021/04/23 06:15:41;;;;;;;;;;;12.60;99.90;;;;;;4999534;28;20085;-84
2021/04/23 06:18:08;;;;;;;0.10;0.10;;;13.10;99.90;;;;;;4987526;28;19910;-85
2021/04/23 06:20:34;;;;;;;0.00;0.00;;;12.90;99.90;;;;;;5007124;28;20045;-85
2021/04/23 06:23:02;;;;;;;0.28;0.28;;;13.30;99.90;;;;;;5008421;28;20050;-86
2021/04/23 06:25:28;;;;;;;0.20;0.20;;;13.50;99.90;;;;;;5007063;28;20509;-85
2021/04/23 06:27:54;;;;;;;0.43;0.43;;;13.20;99.90;;;;;;5008204;28;20018;-86
2021/04/23 06:30:25;;;;;;;0.22;0.22;;;13.40;99.90;;;;;;5010246;28;20384;-85
2021/04/23 06:32:51;;;;;;;0.65;0.65;;;13.10;99.90;;;;;;5014777;28;20526;-85
2021/04/23 06:35:19;;;;;;;0.20;0.20;;;13.90;99.90;;;;;;5004182;28;20030;-86
2021/04/23 06:37:46;;;;;;;0.17;0.17;;;14.10;99.90;;;;;;4993627;28;20486;-86
2021/04/23 06:40:12;;;;;;;0.10;0.10;;;14.50;99.90;;;;;;4999700;28;20044;-85
2021/04/23 06:42:39;;;;;;;1.08;0.55;;;14.40;99.90;;;;;;5013708;28;20065;-87
2021/04/23 06:45:07;;;;;;;0.20;0.20;;;14.50;99.60;;;;;;5006186;28;20494;-87
2021/04/23 06:47:34;;;;;;;0.03;0.03;;;14.60;99.80;;;;;;4996516;28;20785;-87
2021/04/23 06:50:00;;;;;;;0.00;0.00;;;15.10;98.50;;;;;;4995279;28;20019;-87
2021/04/23 06:52:27;;;;;;;0.30;0.30;;;16.00;97.60;;;;;;5005698;28;20053;-87
2021/04/23 06:54:53;;;;;;;0.80;0.80;;;16.30;96.60;;;;;;5004021;28;20029;-87
2021/04/23 06:57:21;;;;;;;0.20;0.20;;;16.40;96.70;;;;;;5002277;28;20039;-87
2021/04/23 06:59:47;;;;;;;0.20;0.20;;;17.00;95.50;;;;;;5002884;28;20273;-86
2021/04/23 07:02:13;;;;;;;0.10;0.08;;;17.30;94.70;;;;;;5028787;28;20030;-87
2021/04/23 07:04:38;;;;;;;0.10;0.10;;;17.20;94.70;;;;;;5008163;28;20074;-87
2021/04/23 07:07:04;;;;;;;0.20;0.20;;;17.20;94.20;;;;;;5012863;28;20022;-86
2021/04/23 07:09:30;;;;;;;0.10;0.10;;;17.50;94.60;;;;;;5013381;28;20414;-86
2021/04/23 07:11:57;;;;;;;0.10;0.10;;;17.30;99.40;;;;;;5014694;28;20037;-86
2021/04/23 07:14:23;;;;;;;6.63;0.50;;;17.40;93.20;;;;;;5002884;28;20075;-86
2021/04/23 07:16:49;;;;;;;0.10;0.10;;;18.10;92.60;;;;;;5010538;28;20034;-86
2021/04/23 07:19:15;;;;;;;0.35;0.28;;;17.40;93.20;;;;;;4994888;28;20031;-87
2021/04/23 07:21:41;;;;;;;0.10;0.10;;;18.40;91.50;;;;;;5010295;28;20025;-87
2021/04/23 07:24:07;;;;;;;0.00;0.00;;;18.40;91.90;;;;;;4994951;28;20046;-86
2021/04/23 07:26:33;;;;;;;0.30;0.30;;;18.30;91.70;;;;;;5003218;28;20038;-86
2021/04/23 07:28:59;;;;;;;0.10;0.10;;;17.80;91.80;;;;;;5009920;28;20029;-86
2021/04/23 07:31:24;;;;;;;0.40;0.27;;;18.40;90.50;;;;;;5013451;28;20030;-86
2021/04/23 07:33:50;;;;;;;0.73;0.37;;;18.30;90.70;;;;;;5012686;28;20088;-87
2021/04/23 07:36:23;;;;;;;0.00;0.00;;;18.90;90.60;;;;;;5003576;28;20065;-87
2021/04/23 07:38:49;;;;;;;0.57;0.57;;;18.70;90.00;;;;;;5004615;28;20057;-87
2021/04/23 07:41:15;;;;;;;0.10;0.10;;;18.20;87.90;;;;;;5003563;28;20061;-86
2021/04/23 07:43:41;;;;;;;0.10;0.10;;;19.20;88.90;;;;;;5000716;28;20774;-87
2021/04/23 07:46:07;;;;;;;1.50;0.20;;;19.20;89.40;;;;;;5002407;28;20749;-86
2021/04/23 07:48:33;;;;;;;0.10;0.10;;;19.80;87.00;;;;;;5002465;28;20122;-86
2021/04/23 07:51:00;;;;;;;0.20;0.20;;;19.30;88.50;;;;;;5001538;28;20026;-86
2021/04/23 07:53:27;;;;;;;0.35;0.10;;;19.60;85.10;;;;;;5000541;28;20030;-87
2021/04/23 07:55:52;;;;;;;0.13;0.13;;;19.60;86.20;;;;;;5017842;28;20049;-86
2021/04/23 07:58:18;;;;;;;0.23;0.23;;;19.60;86.60;;;;;;5001928;28;20414;-86
2021/04/23 08:00:44;;;;;;;0.50;0.22;;;19.30;87.50;;;;;;5001516;28;20269;-86
2021/04/23 08:03:11;;;;;;;0.00;0.00;;;19.50;86.90;;;;;;5004330;28;20038;-86
2021/04/23 08:05:38;;;;;;;0.57;0.52;;;20.10;87.00;;;;;;5016578;28;20442;-86
2021/04/23 08:08:05;;;;;;;0.10;0.10;;;20.20;83.20;;;;;;5001853;28;20073;-88
2021/04/23 08:10:31;;;;;;;0.00;0.00;;;21.00;81.90;;;;;;5024075;28;20572;-87
2021/04/23 08:12:59;;;;;;;0.10;0.10;;;20.80;81.30;;;;;;5011279;28;20030;-87
2021/04/23 08:15:25;;;;;;;0.30;0.30;;;21.00;79.80;;;;;;5011162;28;20037;-88
2021/04/23 08:17:53;;;;;;;0.47;0.20;;;20.60;78.60;;;;;;5010883;28;20108;-87
2021/04/23 08:20:20;;;;;;;0.40;0.30;;;20.30;82.70;;;;;;5011040;28;20042;-87
2021/04/23 08:22:45;;;;;;;;;;;21.60;79.30;;;;;;5010995;28;20049;-87
2021/04/23 08:25:12;;;;;;;0.08;0.08;;;21.50;79.00;;;;;;5011002;28;20381;-87
2021/04/23 08:27:39;;;;;;;0.10;0.10;;;21.50;78.60;;;;;;5009365;28;20037;-87
2021/04/23 08:30:07;;;;;;;0.47;0.47;;;22.20;75.90;;;;;;4991461;28;20106;-87
2021/04/23 08:32:33;;;;;;;0.05;0.05;;;22.70;73.50;;;;;;4989974;28;20490;-87
2021/04/23 08:34:59;;;;;;;0.00;0.00;;;23.60;69.60;;;;;;5005578;28;20068;-87
2021/04/23 08:37:25;;;;;;;0.15;0.15;;;23.50;64.80;;;;;;5009196;28;20038;-88
2021/04/23 08:39:50;;;;;;;0.10;0.10;;;23.50;67.10;;;;;;4999073;28;20033;-87
2021/04/23 08:42:16;;;;;;;5.17;0.57;;;23.70;64.50;;;;;;4991380;28;20093;-88
2021/04/23 08:44:42;;;;;;;0.08;0.08;;;24.00;63.20;;;;;;5005717;28;20402;-87
2021/04/23 08:47:09;;;;;;;0.07;0.07;;;25.10;60.50;;;;;;4996035;28;20053;-87
2021/04/23 08:49:35;;;;;;;;;;;24.50;59.40;;;;;;5010894;28;20265;-87
2021/04/23 08:52:02;;;;;;;0.00;0.00;;;24.80;60.40;;;;;;5010513;28;19913;-87
2021/04/23 08:54:28;;;;;;;0.10;0.10;;;25.90;59.10;;;;;;5010084;28;20792;-87
2021/04/23 08:56:54;;;;;;;0.10;0.10;;;25.50;60.00;;;;;;5010214;28;20049;-87
2021/04/23 08:59:20;;;;;;;0.00;0.00;;;27.00;55.40;;;;;;5010481;28;20026;-88
2021/04/23 09:01:46;;;;;;;0.10;0.10;;;26.30;54.50;;;;;;5008557;28;20034;-87
2021/04/23 09:04:12;;;;;;;0.50;0.20;;;26.80;53.40;;;;;;5009999;28;20022;-87
2021/04/23 09:06:39;;;;;;;0.63;0.30;;;27.10;54.20;;;;;;5000062;28;20398;-87
2021/04/23 09:09:09;;;;;;;;;;;27.70;49.70;;;;;;4994829;28;20121;-87
2021/04/23 09:11:42;;;;;;;0.10;0.10;;;27.70;50.80;;;;;;4991224;28;19905;-87
2021/04/23 09:14:19;;;;;;;0.00;0.00;;;29.10;47.40;;;;;;4990384;28;20077;-87
2021/04/23 09:16:45;;;;;;;0.50;0.13;;;30.50;43.10;;;;;;4992169;28;20052;-87
2021/04/23 09:19:23;;;;;;;0.07;0.07;;;29.20;43.30;;;;;;5015252;28;20038;-87
2021/04/23 09:21:56;;;;;;;0.20;0.20;;;29.30;38.50;;;;;;5009104;28;20097;-87
2021/04/23 09:24:29;;;;;;;0.20;0.20;;;30.70;39.40;;;;;;5015632;28;20108;-87
2021/04/23 09:26:57;;;;;;;0.00;0.00;;;29.20;41.40;;;;;;5009501;28;20014;-87
2021/04/23 09:29:30;;;;;;;0.15;0.15;;;28.20;41.10;;;;;;5007865;28;20036;-88
2021/04/23 09:32:06;;;;;;;0.10;0.10;;;29.90;40.60;;;;;;5008310;28;20064;-87
2021/04/23 09:34:32;;;;;;;0.30;0.13;;;32.40;31.90;;;;;;5007681;28;20040;-87
2021/04/23 09:36:58;;;;;;;0.20;0.20;;;33.50;26.90;;;;;;5002170;28;20105;-88
2021/04/23 09:39:25;;;;;;;0.47;0.20;;;32.80;30.70;;;;;;4988066;28;20042;-87
2021/04/23 09:41:54;;;;;;;0.30;0.30;;;32.30;27.00;;;;;;4989932;28;20865;-87
2021/04/23 09:44:30;;;;;;;0.00;0.00;;;33.10;27.40;;;;;;4989648;28;20026;-88
2021/04/23 09:47:05;;;;;;;0.13;0.13;;;32.90;26.10;;;;;;5017516;28;20021;-88
2021/04/23 09:49:31;;;;;;;0.47;0.47;;;32.90;26.00;;;;;;5007284;28;20056;-87
2021/04/23 09:51:59;;;;;;;0.13;0.13;;;33.60;23.10;;;;;;5008842;28;20018;-88
2021/04/23 09:54:25;;;;;;;0.20;0.20;;;31.80;28.30;;;;;;5007635;28;20037;-88
2021/04/23 09:56:51;;;;;;;;;;;31.90;22.60;;;;;;5009405;28;20022;-88
2021/04/23 09:59:29;;;;;;;0.30;0.30;;;31.70;26.60;;;;;;5007294;28;19988;-87
2021/04/23 10:01:57;;;;;;;0.38;0.22;;;30.90;28.30;;;;;;5007702;28;20025;-87
2021/04/23 10:04:32;;;;;;;1.23;0.38;;;29.80;30.70;;;;;;5006983;28;20026;-88
2021/04/23 10:07:10;;;;;;;1.45;0.60;;;30.10;29.50;;;;;;5008771;28;20068;-88
2021/04/23 10:09:55;;;;;;;0.28;0.28;;;33.90;22.50;;;;;;5018832;28;20077;-87
2021/04/23 10:12:44;;;;;;;0.00;0.00;;;33.30;23.00;;;;;;5020632;28;20416;-86
2021/04/23 10:15:22;;;;;;;0.10;0.10;;;30.20;23.20;;;;;;4998352;28;20030;-86
2021/04/23 10:17:54;;;;;;;0.45;0.20;;;32.80;21.60;;;;;;5000794;28;20045;-86
2021/04/23 10:20:34;;;;;;;0.03;0.03;;;33.90;15.60;;;;;;4999869;28;20038;-86
2021/04/23 10:23:02;;;;;;;0.03;0.03;;;29.60;19.60;;;;;;5008657;28;20132;-85
2021/04/23 10:25:29;;;;;;;0.20;0.20;;;30.80;25.50;;;;;;4998434;28;20800;-85
2021/04/23 10:27:57;;;;;;;0.65;0.50;;;31.30;23.40;;;;;;5007084;28;20050;-86
2021/04/23 10:30:27;;;;;;;0.17;0.17;;;30.70;20.20;;;;;;5003255;28;20035;-87
2021/04/23 10:32:55;;;;;;;0.80;0.63;;;29.10;21.30;;;;;;5006837;28;20118;-88
2021/04/23 10:35:23;;;;;;;0.10;0.10;;;29.90;22.10;;;;;;4999339;28;20403;-87
2021/04/23 10:37:50;;;;;;;0.10;0.00;;;33.40;17.70;;;;;;5006076;28;20052;-87
2021/04/23 10:40:19;;;;;;;0.57;0.47;;;32.20;20.90;;;;;;5007071;28;20145;-86
2021/04/23 10:42:51;;;;;;;0.00;0.00;;;32.30;20.40;;;;;;4993368;28;20038;-89
2021/04/23 10:45:27;;;;;;;2.83;1.33;;;35.50;12.60;;;;;;5007743;28;20073;-86
2021/04/23 10:47:56;;;;;;;;;;;33.70;16.50;;;;;;5008558;28;20030;-87
2021/04/23 10:50:37;;;;;;;0.35;0.35;;;30.90;15.40;;;;;;5006591;28;19906;-89
2021/04/23 10:53:08;;;;;;;0.00;0.00;;;32.90;18.30;;;;;;5001957;28;20050;-87
2021/04/23 10:55:43;;;;;;;0.68;0.43;;;29.90;22.30;;;;;;5000213;28;20110;-88
2021/04/23 10:58:12;;;;;;;0.10;0.10;;;28.30;20.10;;;;;;5011189;28;20085;-89
2021/04/23 11:00:39;;;;;;;0.00;0.00;;;30.90;18.30;;;;;;4988962;28;20445;-87
2021/04/23 11:03:21;;;;;;;0.30;0.30;;;34.10;15.90;;;;;;5003740;28;20030;-88
2021/04/23 11:06:05;;;;;;;0.50;0.30;;;32.80;25.00;;;;;;5001981;28;20065;-88
2021/04/23 11:08:36;;;;;;;0.57;0.57;;;30.70;16.40;;;;;;5000437;28;20068;-89
2021/04/23 11:11:05;;;;;;;0.30;0.30;;;29.10;21.70;;;;;;5004527;28;20018;-89
2021/04/23 11:13:32;;;;;;;0.10;0.10;;;31.60;17.10;;;;;;4996484;28;20617;-89
2021/04/23 11:16:20;;;;;;;0.20;0.20;;;33.60;11.50;;;;;;5002278;28;20110;-89
2021/04/23 11:18:52;;;;;;;1.25;0.88;;;28.40;22.00;;;;;;5002939;28;20057;-86
2021/04/23 11:21:27;;;;;;;0.00;0.00;;;29.80;19.20;;;;;;5004145;28;20037;-87
2021/04/23 11:24:20;;;;;;;0.40;0.40;;;32.00;15.50;;;;;;5002174;28;20835;-86
2021/04/23 11:26:57;;;;;;;0.38;0.38;;;33.60;15.60;;;;;;5006141;28;20042;-87
2021/04/23 11:29:33;;;;;;;0.93;0.25;;;32.80;14.50;;;;;;4999833;28;20018;-85
2021/04/23 11:32:13;;;;;;;0.05;0.05;;;30.70;20.00;;;;;;5002063;28;20026;-85
2021/04/23 11:34:45;;;;;;;0.63;0.63;;;24.10;27.60;;;;;;5005767;28;20023;-85
2021/04/23 11:37:24;;;;;;;0.15;0.15;;;23.20;28.50;;;;;;5001293;28;20041;-85
2021/04/23 11:39:59;;;;;;;0.10;0.10;;;23.40;27.80;;;;;;5001747;28;20071;-86
2021/04/23 11:42:28;;;;;;;0.20;0.20;;;23.60;27.70;;;;;;5004335;28;20104;-86
2021/04/23 11:45:06;;;;;;;0.10;0.10;;;23.20;28.90;;;;;;5002245;28;20030;-86
2021/04/23 11:47:45;;;;;;;0.15;0.15;;;23.30;29.00;;;;;;5004742;28;20847;-87
2021/04/23 11:50:13;;;;;;;0.20;0.20;;;23.80;28.60;;;;;;4994106;28;20023;-87
2021/04/23 11:52:41;;;;;;;0.10;0.10;;;23.50;29.20;;;;;;5003132;28;20501;-89
2021/04/23 11:55:29;;;;;;;0.25;0.25;;;23.70;28.30;;;;;;5010902;28;20044;-87
2021/04/23 11:58:05;;;;;;;0.20;0.20;;;22.80;29.30;;;;;;5003223;28;20042;-86
2021/04/23 12:00:31;;;;;;;;;;;23.10;30.70;;;;;;5006935;28;20120;-86
2021/04/23 12:02:58;;;;;;;0.10;0.10;;;23.10;29.20;;;;;;5001514;28;19921;-85
2021/04/23 12:05:28;;;;;;;0.05;0.05;;;22.60;30.00;;;;;;5007244;28;20040;-86
2021/04/23 12:08:01;;;;;;;1.10;0.47;;;23.00;30.70;;;;;;5003475;28;20049;-86
2021/04/23 12:10:30;;;;;;;0.17;0.17;;;22.70;30.20;;;;;;5015469;28;20038;-87
2021/04/23 12:12:56;;;;;;;0.28;0.28;;;23.10;30.10;;;;;;5006089;28;20018;-87
2021/04/23 12:15:25;;;;;;;0.63;0.20;;;23.30;29.50;;;;;;5002365;28;20036;-87
2021/04/23 12:17:52;;;;;;;0.98;0.75;;;23.30;30.00;;;;;;4999693;28;20041;-87
2021/04/23 12:20:27;;;;;;;0.28;0.28;;;22.60;30.00;;;;;;5008630;28;20406;-87
2021/04/23 12:22:53;;;;;;;0.00;0.00;;;22.40;30.20;;;;;;4997405;28;20622;-88
2021/04/23 12:25:31;;;;;;;0.20;0.20;;;22.30;31.40;;;;;;5002864;28;20037;-87
2021/04/23 12:28:15;;;;;;;0.10;0.10;;;22.60;30.70;;;;;;4993960;28;20018;-87
2021/04/23 12:30:42;;;;;;;0.13;0.00;;;23.00;29.60;;;;;;5007008;28;20748;-87
2021/04/23 12:33:08;;;;;;;0.40;0.30;;;23.00;30.40;;;;;;5006713;28;20127;-87
2021/04/23 12:35:43;;;;;;;1.97;0.97;;;22.20;31.80;;;;;;4998824;28;20113;-87
2021/04/23 12:38:12;;;;;;;0.10;0.10;;;22.10;32.30;;;;;;5008521;28;20264;-87
2021/04/23 12:40:42;;;;;;;0.32;0.22;;;22.30;31.80;;;;;;5008150;28;20034;-87
2021/04/23 12:43:16;;;;;;;0.20;0.20;;;22.50;30.40;;;;;;5009491;28;20109;-87
2021/04/23 12:45:48;;;;;;;0.15;0.10;;;22.70;30.40;;;;;;5008340;28;20624;-87
2021/04/23 12:48:14;;;;;;;0.00;0.00;;;22.30;30.80;;;;;;5009764;28;20030;-88
2021/04/23 12:50:43;;;;;;;0.20;0.17;;;22.50;30.60;;;;;;5009769;28;20022;-88
2021/04/23 12:53:09;;;;;;;0.22;0.22;;;22.80;31.40;;;;;;5008660;28;20042;-87
2021/04/23 12:55:37;;;;;;;0.15;0.10;;;22.90;30.30;;;;;;5008602;28;20026;-87
2021/04/23 12:58:03;;;;;;;0.28;0.28;;;22.70;30.30;;;;;;5009728;28;20165;-88
2021/04/23 13:00:31;;;;;;;0.35;0.35;;;22.70;31.30;;;;;;5008235;28;20072;-87
2021/04/23 13:02:59;;;;;;;0.40;0.40;;;22.50;30.80;;;;;;5009697;28;20038;-87